sensor_id;sensor_type;location;lat;lon;timestamp;pressure;altitude;pressure_sealevel;temperature;humidity
36834;BME280;48003;52.084;5.224;2022-12-07T00:00:27;101927.0;;;7.7;79.23
36834;BME280;48003;52.084;5.224;2022-12-07T00:02:03;101924.0;;;7.63;79.27
36834;BME280;48003;52.084;5.224;2022-12-07T00:05:17;101928.0;;;7.6;79.33
36834;BME280;48003;52.084;5.224;2022-12-07T00:06:53;101925.0;;;7.61;79.55
36834;BME280;48003;52.084;5.224;2022-12-07T00:08:30;101918.0;;;7.57;79.75
36834;BME280;48003;52.084;5.224;2022-12-07T00:11:48;101922.0;;;7.59;79.78
36834;BME280;48003;52.084;5.224;2022-12-07T00:13:25;101924.0;;;7.6;79.86
36834;BME280;48003;52.084;5.224;2022-12-07T00:15:02;101921.0;;;7.67;79.72
36834;BME280;48003;52.084;5.224;2022-12-07T00:16:39;101920.0;;;7.71;79.74
36834;BME280;48003;52.084;5.224;2022-12-07T00:19:52;101927.0;;;7.73;79.69
36834;BME280;48003;52.084;5.224;2022-12-07T00:21:30;101921.0;;;7.72;79.69
36834;BME280;48003;52.084;5.224;2022-12-07T00:23:07;101916.0;;;7.79;79.31
36834;BME280;48003;52.084;5.224;2022-12-07T00:26:21;101916.0;;;7.78;79.05
36834;BME280;48003;52.084;5.224;2022-12-07T00:27:58;101912.0;;;7.76;78.97
36834;BME280;48003;52.084;5.224;2022-12-07T00:29:34;101909.0;;;7.72;78.95
36834;BME280;48003;52.084;5.224;2022-12-07T00:31:12;101908.0;;;7.7;78.89
36834;BME280;48003;52.084;5.224;2022-12-07T00:34:24;101907.0;;;7.67;78.97
36834;BME280;48003;52.084;5.224;2022-12-07T00:36:02;101899.0;;;7.58;79.16
36834;BME280;48003;52.084;5.224;2022-12-07T00:37:39;101899.0;;;7.51;79.52
36834;BME280;48003;52.084;5.224;2022-12-07T00:40:55;101902.0;;;7.47;79.8
36834;BME280;48003;52.084;5.224;2022-12-07T00:42:32;101897.0;;;7.42;79.69
36834;BME280;48003;52.084;5.224;2022-12-07T00:44:08;101894.0;;;7.42;79.66
36834;BME280;48003;52.084;5.224;2022-12-07T00:45:45;101892.0;;;7.32;79.69
36834;BME280;48003;52.084;5.224;2022-12-07T00:48:57;101892.0;;;7.27;79.94
36834;BME280;48003;52.084;5.224;2022-12-07T00:50:33;101888.0;;;7.25;80.03
36834;BME280;48003;52.084;5.224;2022-12-07T00:52:09;101890.0;;;7.22;79.8
36834;BME280;48003;52.084;5.224;2022-12-07T00:55:23;101893.0;;;7.2;79.95
36834;BME280;48003;52.084;5.224;2022-12-07T00:56:59;101895.0;;;7.19;79.69
36834;BME280;48003;52.084;5.224;2022-12-07T00:58:35;101894.0;;;7.18;79.8
36834;BME280;48003;52.084;5.224;2022-12-07T01:01:48;101893.0;;;7.16;79.7
36834;BME280;48003;52.084;5.224;2022-12-07T01:03:24;101893.0;;;7.16;79.81
36834;BME280;48003;52.084;5.224;2022-12-07T01:05:01;101885.0;;;7.13;79.86
36834;BME280;48003;52.084;5.224;2022-12-07T01:06:38;101885.0;;;7.07;79.47
36834;BME280;48003;52.084;5.224;2022-12-07T01:09:50;101882.0;;;7.12;79.58
36834;BME280;48003;52.084;5.224;2022-12-07T01:11:28;101888.0;;;7.1;79.62
36834;BME280;48003;52.084;5.224;2022-12-07T01:13:05;101887.0;;;7.12;79.02
36834;BME280;48003;52.084;5.224;2022-12-07T01:16:19;101895.0;;;7.07;79.14
36834;BME280;48003;52.084;5.224;2022-12-07T01:17:56;101899.0;;;7.08;79.11
36834;BME280;48003;52.084;5.224;2022-12-07T01:19:32;101901.0;;;7.1;79.28
36834;BME280;48003;52.084;5.224;2022-12-07T01:22:47;101898.0;;;7.05;78.94
36834;BME280;48003;52.084;5.224;2022-12-07T01:24:24;101905.0;;;7.02;78.97
36834;BME280;48003;52.084;5.224;2022-12-07T01:26:03;101901.0;;;7.02;79.14
36834;BME280;48003;52.084;5.224;2022-12-07T01:27:39;101900.0;;;7.02;79.11
36834;BME280;48003;52.084;5.224;2022-12-07T01:30:56;101897.0;;;7.05;79.41
36834;BME280;48003;52.084;5.224;2022-12-07T01:32:33;101897.0;;;7.03;79.48
36834;BME280;48003;52.084;5.224;2022-12-07T01:34:10;101899.0;;;7.06;79.27
36834;BME280;48003;52.084;5.224;2022-12-07T01:37:22;101899.0;;;7.1;79.11
36834;BME280;48003;52.084;5.224;2022-12-07T01:39:00;101901.0;;;7.1;79.22
36834;BME280;48003;52.084;5.224;2022-12-07T01:40:36;101899.0;;;7.07;79.28
36834;BME280;48003;52.084;5.224;2022-12-07T01:42:12;101899.0;;;7.06;79.56
36834;BME280;48003;52.084;5.224;2022-12-07T01:45:59;101894.0;;;7.1;79.41
36834;BME280;48003;52.084;5.224;2022-12-07T01:47:39;101895.0;;;7.11;79.11
36834;BME280;48003;52.084;5.224;2022-12-07T01:51:03;101894.0;;;7.12;79.16
36834;BME280;48003;52.084;5.224;2022-12-07T01:52:42;101897.0;;;7.1;79.19
36834;BME280;48003;52.084;5.224;2022-12-07T01:56:02;101896.0;;;7.03;78.84
36834;BME280;48003;52.084;5.224;2022-12-07T01:57:41;101895.0;;;6.97;78.94
36834;BME280;48003;52.084;5.224;2022-12-07T01:59:21;101894.0;;;6.91;78.8
36834;BME280;48003;52.084;5.224;2022-12-07T02:04:18;101896.0;;;6.9;78.95
36834;BME280;48003;52.084;5.224;2022-12-07T02:05:55;101895.0;;;6.99;78.75
36834;BME280;48003;52.084;5.224;2022-12-07T02:07:35;101894.0;;;6.99;79.02
36834;BME280;48003;52.084;5.224;2022-12-07T02:10:51;101897.0;;;7.06;78.97
36834;BME280;48003;52.084;5.224;2022-12-07T02:12:27;101896.0;;;7.07;78.84
36834;BME280;48003;52.084;5.224;2022-12-07T02:14:05;101894.0;;;6.96;79.42
36834;BME280;48003;52.084;5.224;2022-12-07T02:15:51;101901.0;;;7.01;79.41
36834;BME280;48003;52.084;5.224;2022-12-07T02:20:09;101894.0;;;7.08;79.2
36834;BME280;48003;52.084;5.224;2022-12-07T02:22:22;101887.0;;;7.27;78.56
36834;BME280;48003;52.084;5.224;2022-12-07T02:24:19;101887.0;;;7.3;78.61
36834;BME280;48003;52.084;5.224;2022-12-07T02:27:04;101884.0;;;7.34;78.45
36834;BME280;48003;52.084;5.224;2022-12-07T02:29:33;101886.0;;;7.39;78.24
36834;BME280;48003;52.084;5.224;2022-12-07T02:31:19;101887.0;;;7.45;78.03
36834;BME280;48003;52.084;5.224;2022-12-07T02:32:59;101887.0;;;7.42;78.11
36834;BME280;48003;52.084;5.224;2022-12-07T02:34:44;101886.0;;;7.41;78.27
36834;BME280;48003;52.084;5.224;2022-12-07T02:38:13;101878.0;;;7.37;78.67
36834;BME280;48003;52.084;5.224;2022-12-07T02:39:55;101873.0;;;7.29;79.17
36834;BME280;48003;52.084;5.224;2022-12-07T02:41:37;101874.0;;;7.26;79.37
36834;BME280;48003;52.084;5.224;2022-12-07T02:43:20;101873.0;;;7.31;78.98
36834;BME280;48003;52.084;5.224;2022-12-07T02:45:02;101878.0;;;7.34;78.84
36834;BME280;48003;52.084;5.224;2022-12-07T02:48:20;101878.0;;;7.36;78.91
36834;BME280;48003;52.084;5.224;2022-12-07T02:49:57;101874.0;;;7.35;78.81
36834;BME280;48003;52.084;5.224;2022-12-07T02:51:38;101873.0;;;7.33;78.99
36834;BME280;48003;52.084;5.224;2022-12-07T02:55:28;101871.0;;;7.3;79.24
36834;BME280;48003;52.084;5.224;2022-12-07T02:57:17;101873.0;;;7.26;79.44
36834;BME280;48003;52.084;5.224;2022-12-07T02:59:04;101874.0;;;7.22;79.55
36834;BME280;48003;52.084;5.224;2022-12-07T03:01:02;101875.0;;;7.21;79.52
36834;BME280;48003;52.084;5.224;2022-12-07T03:02:51;101874.0;;;7.15;79.52
36834;BME280;48003;52.084;5.224;2022-12-07T03:04:41;101878.0;;;7.11;79.49
36834;BME280;48003;52.084;5.224;2022-12-07T03:06:22;101881.0;;;7.16;79.2
36834;BME280;48003;52.084;5.224;2022-12-07T03:08:08;101893.0;;;7.16;79.16
36834;BME280;48003;52.084;5.224;2022-12-07T03:11:42;101890.0;;;7.19;79.2
36834;BME280;48003;52.084;5.224;2022-12-07T03:13:24;101891.0;;;7.21;79.14
36834;BME280;48003;52.084;5.224;2022-12-07T03:15:09;101889.0;;;7.19;79.44
36834;BME280;48003;52.084;5.224;2022-12-07T03:16:52;101880.0;;;7.12;79.8
36834;BME280;48003;52.084;5.224;2022-12-07T03:18:35;101883.0;;;7.04;79.66
36834;BME280;48003;52.084;5.224;2022-12-07T03:22:00;101878.0;;;7.02;79.87
36834;BME280;48003;52.084;5.224;2022-12-07T03:23:40;101872.0;;;7.09;79.77
36834;BME280;48003;52.084;5.224;2022-12-07T03:25:20;101868.0;;;7.12;79.63
36834;BME280;48003;52.084;5.224;2022-12-07T03:27:01;101870.0;;;7.1;79.77
36834;BME280;48003;52.084;5.224;2022-12-07T03:30:34;101867.0;;;7.07;79.98
36834;BME280;48003;52.084;5.224;2022-12-07T03:32:15;101873.0;;;7.06;79.38
36834;BME280;48003;52.084;5.224;2022-12-07T03:34:06;101871.0;;;7.04;79.74
36834;BME280;48003;52.084;5.224;2022-12-07T03:35:55;101870.0;;;6.98;79.73
36834;BME280;48003;52.084;5.224;2022-12-07T03:37:38;101866.0;;;6.97;80.05
36834;BME280;48003;52.084;5.224;2022-12-07T03:41:05;101867.0;;;6.97;79.94
36834;BME280;48003;52.084;5.224;2022-12-07T03:42:46;101864.0;;;6.98;79.62
36834;BME280;48003;52.084;5.224;2022-12-07T03:44:23;101864.0;;;6.93;79.84
36834;BME280;48003;52.084;5.224;2022-12-07T03:46:06;101864.0;;;6.89;79.83
36834;BME280;48003;52.084;5.224;2022-12-07T03:47:54;101862.0;;;6.84;79.58
36834;BME280;48003;52.084;5.224;2022-12-07T03:51:25;101860.0;;;6.78;79.64
36834;BME280;48003;52.084;5.224;2022-12-07T03:53:09;101862.0;;;6.77;79.52
36834;BME280;48003;52.084;5.224;2022-12-07T03:54:52;101863.0;;;6.73;79.55
36834;BME280;48003;52.084;5.224;2022-12-07T03:56:32;101866.0;;;6.71;79.77
36834;BME280;48003;52.084;5.224;2022-12-07T03:58:14;101868.0;;;6.69;79.73
36834;BME280;48003;52.084;5.224;2022-12-07T04:01:31;101868.0;;;6.66;79.89
36834;BME280;48003;52.084;5.224;2022-12-07T04:03:08;101868.0;;;6.67;79.88
36834;BME280;48003;52.084;5.224;2022-12-07T04:04:45;101867.0;;;6.66;79.72
36834;BME280;48003;52.084;5.224;2022-12-07T04:07:57;101866.0;;;6.64;79.69
36834;BME280;48003;52.084;5.224;2022-12-07T04:09:33;101861.0;;;6.62;79.61
36834;BME280;48003;52.084;5.224;2022-12-07T04:11:09;101858.0;;;6.59;79.64
36834;BME280;48003;52.084;5.224;2022-12-07T04:14:23;101859.0;;;6.57;79.7
36834;BME280;48003;52.084;5.224;2022-12-07T04:15:59;101858.0;;;6.55;79.8
36834;BME280;48003;52.084;5.224;2022-12-07T04:17:35;101856.0;;;6.68;79.55
36834;BME280;48003;52.084;5.224;2022-12-07T04:19:13;101852.0;;;6.74;79.33
36834;BME280;48003;52.084;5.224;2022-12-07T04:22:26;101857.0;;;6.8;79.08
36834;BME280;48003;52.084;5.224;2022-12-07T04:24:02;101856.0;;;6.71;79.02
36834;BME280;48003;52.084;5.224;2022-12-07T04:25:39;101853.0;;;6.74;78.99
36834;BME280;48003;52.084;5.224;2022-12-07T04:28:52;101850.0;;;6.71;78.8
36834;BME280;48003;52.084;5.224;2022-12-07T04:30:29;101853.0;;;6.74;78.78
36834;BME280;48003;52.084;5.224;2022-12-07T04:32:05;101853.0;;;6.73;78.41
36834;BME280;48003;52.084;5.224;2022-12-07T04:35:17;101856.0;;;6.75;78.33
36834;BME280;48003;52.084;5.224;2022-12-07T04:36:53;101857.0;;;6.71;78.22
36834;BME280;48003;52.084;5.224;2022-12-07T04:38:29;101855.0;;;6.8;78.16
36834;BME280;48003;52.084;5.224;2022-12-07T04:40:08;101850.0;;;6.7;77.95
36834;BME280;48003;52.084;5.224;2022-12-07T04:43:21;101855.0;;;6.93;77.94
36834;BME280;48003;52.084;5.224;2022-12-07T04:44:57;101863.0;;;6.96;77.67
36834;BME280;48003;52.084;5.224;2022-12-07T04:46:33;101865.0;;;6.9;78.02
36834;BME280;48003;52.084;5.224;2022-12-07T04:49:45;101863.0;;;6.8;78.55
36834;BME280;48003;52.084;5.224;2022-12-07T04:51:23;101862.0;;;6.72;78.63
36834;BME280;48003;52.084;5.224;2022-12-07T04:53:01;101857.0;;;6.69;78.66
36834;BME280;48003;52.084;5.224;2022-12-07T04:56:13;101855.0;;;6.65;78.69
36834;BME280;48003;52.084;5.224;2022-12-07T04:57:51;101848.0;;;6.63;78.89
36834;BME280;48003;52.084;5.224;2022-12-07T04:59:27;101845.0;;;6.66;78.61
36834;BME280;48003;52.084;5.224;2022-12-07T05:01:03;101842.0;;;6.58;79.05
36834;BME280;48003;52.084;5.224;2022-12-07T05:04:16;101837.0;;;6.65;78.8
36834;BME280;48003;52.084;5.224;2022-12-07T05:05:52;101838.0;;;6.66;78.69
36834;BME280;48003;52.084;5.224;2022-12-07T05:07:28;101836.0;;;6.69;78.87
36834;BME280;48003;52.084;5.224;2022-12-07T05:10:42;101844.0;;;6.72;78.49
36834;BME280;48003;52.084;5.224;2022-12-07T05:12:18;101835.0;;;6.8;78.42
36834;BME280;48003;52.084;5.224;2022-12-07T05:13:54;101836.0;;;6.61;78.08
36834;BME280;48003;52.084;5.224;2022-12-07T05:17:07;101838.0;;;6.55;78.61
36834;BME280;48003;52.084;5.224;2022-12-07T05:18:44;101841.0;;;6.5;78.83
36834;BME280;48003;52.084;5.224;2022-12-07T05:20:20;101841.0;;;6.52;78.83
36834;BME280;48003;52.084;5.224;2022-12-07T05:21:56;101842.0;;;6.6;78.7
36834;BME280;48003;52.084;5.224;2022-12-07T05:25:08;101837.0;;;6.48;78.97
36834;BME280;48003;52.084;5.224;2022-12-07T05:26:45;101838.0;;;6.49;79.0
36834;BME280;48003;52.084;5.224;2022-12-07T05:28:22;101835.0;;;6.62;79.11
36834;BME280;48003;52.084;5.224;2022-12-07T05:31:34;101833.0;;;6.77;78.67
36834;BME280;48003;52.084;5.224;2022-12-07T05:33:10;101838.0;;;6.7;78.87
36834;BME280;48003;52.084;5.224;2022-12-07T05:34:47;101837.0;;;6.64;78.83
36834;BME280;48003;52.084;5.224;2022-12-07T05:37:59;101836.0;;;6.57;78.87
36834;BME280;48003;52.084;5.224;2022-12-07T05:39:35;101838.0;;;6.54;79.02
36834;BME280;48003;52.084;5.224;2022-12-07T05:42:11;101833.0;;;6.51;79.11
36834;BME280;48003;52.084;5.224;2022-12-07T05:43:48;101834.0;;;6.5;79.05
36834;BME280;48003;52.084;5.224;2022-12-07T05:45:24;101834.0;;;6.6;78.66
36834;BME280;48003;52.084;5.224;2022-12-07T05:47:00;101836.0;;;6.57;78.83
36834;BME280;48003;52.084;5.224;2022-12-07T05:50:12;101840.0;;;6.55;78.87
36834;BME280;48003;52.084;5.224;2022-12-07T05:51:48;101839.0;;;6.48;79.08
36834;BME280;48003;52.084;5.224;2022-12-07T05:53:25;101832.0;;;6.63;78.77
36834;BME280;48003;52.084;5.224;2022-12-07T05:56:37;101833.0;;;6.61;78.52
36834;BME280;48003;52.084;5.224;2022-12-07T05:59:30;101836.0;;;6.55;78.77
36834;BME280;48003;52.084;5.224;2022-12-07T06:01:06;101832.0;;;6.58;78.74
36834;BME280;48003;52.084;5.224;2022-12-07T06:02:43;101839.0;;;6.65;78.44
36834;BME280;48003;52.084;5.224;2022-12-07T06:04:20;101833.0;;;6.74;78.53
36834;BME280;48003;52.084;5.224;2022-12-07T06:05:56;101831.0;;;6.84;77.97
36834;BME280;48003;52.084;5.224;2022-12-07T06:09:09;101834.0;;;6.83;77.77
36834;BME280;48003;52.084;5.224;2022-12-07T06:10:47;101832.0;;;6.74;77.92
36834;BME280;48003;52.084;5.224;2022-12-07T06:12:39;101836.0;;;6.64;78.27
36834;BME280;48003;52.084;5.224;2022-12-07T06:14:16;101836.0;;;6.55;78.36
36834;BME280;48003;52.084;5.224;2022-12-07T06:17:28;101834.0;;;6.51;78.31
36834;BME280;48003;52.084;5.224;2022-12-07T06:19:04;101837.0;;;6.46;78.44
36834;BME280;48003;52.084;5.224;2022-12-07T06:20:40;101843.0;;;6.44;78.31
36834;BME280;48003;52.084;5.224;2022-12-07T06:23:54;101836.0;;;6.35;78.42
36834;BME280;48003;52.084;5.224;2022-12-07T06:25:30;101834.0;;;6.39;78.52
36834;BME280;48003;52.084;5.224;2022-12-07T06:27:06;101837.0;;;6.39;78.61
36834;BME280;48003;52.084;5.224;2022-12-07T06:30:19;101836.0;;;6.37;78.63
36834;BME280;48003;52.084;5.224;2022-12-07T06:31:56;101836.0;;;6.32;78.84
36834;BME280;48003;52.084;5.224;2022-12-07T06:33:32;101833.0;;;6.29;79.05
36834;BME280;48003;52.084;5.224;2022-12-07T06:35:08;101833.0;;;6.31;79.17
36834;BME280;48003;52.084;5.224;2022-12-07T06:38:23;101842.0;;;6.29;79.36
36834;BME280;48003;52.084;5.224;2022-12-07T06:40:00;101839.0;;;6.27;79.17
36834;BME280;48003;52.084;5.224;2022-12-07T06:41:37;101842.0;;;6.3;79.03
36834;BME280;48003;52.084;5.224;2022-12-07T06:44:50;101844.0;;;6.32;79.09
36834;BME280;48003;52.084;5.224;2022-12-07T06:46:26;101841.0;;;6.29;78.83
36834;BME280;48003;52.084;5.224;2022-12-07T06:48:03;101841.0;;;6.26;78.84
36834;BME280;48003;52.084;5.224;2022-12-07T06:51:15;101839.0;;;6.24;79.05
36834;BME280;48003;52.084;5.224;2022-12-07T06:52:52;101837.0;;;6.24;78.97
36834;BME280;48003;52.084;5.224;2022-12-07T06:54:30;101836.0;;;6.24;79.02
36834;BME280;48003;52.084;5.224;2022-12-07T06:56:07;101835.0;;;6.25;79.19
36834;BME280;48003;52.084;5.224;2022-12-07T06:59:21;101833.0;;;6.23;79.14
36834;BME280;48003;52.084;5.224;2022-12-07T07:00:57;101835.0;;;6.23;79.3
36834;BME280;48003;52.084;5.224;2022-12-07T07:02:33;101839.0;;;6.22;78.66
36834;BME280;48003;52.084;5.224;2022-12-07T07:05:45;101842.0;;;6.18;78.87
36834;BME280;48003;52.084;5.224;2022-12-07T07:07:21;101844.0;;;6.15;78.49
36834;BME280;48003;52.084;5.224;2022-12-07T07:08:58;101846.0;;;6.13;78.66
36834;BME280;48003;52.084;5.224;2022-12-07T07:12:11;101840.0;;;6.11;79.11
36834;BME280;48003;52.084;5.224;2022-12-07T07:13:47;101836.0;;;6.18;79.16
36834;BME280;48003;52.084;5.224;2022-12-07T07:15:23;101836.0;;;6.23;79.11
36834;BME280;48003;52.084;5.224;2022-12-07T07:17:00;101832.0;;;6.31;79.12
36834;BME280;48003;52.084;5.224;2022-12-07T07:20:13;101835.0;;;6.44;78.94
36834;BME280;48003;52.084;5.224;2022-12-07T07:21:49;101837.0;;;6.48;78.86
36834;BME280;48003;52.084;5.224;2022-12-07T07:23:25;101839.0;;;6.48;78.75
36834;BME280;48003;52.084;5.224;2022-12-07T07:26:39;101837.0;;;6.54;78.55
36834;BME280;48003;52.084;5.224;2022-12-07T07:28:16;101837.0;;;6.6;78.36
36834;BME280;48003;52.084;5.224;2022-12-07T07:29:52;101836.0;;;6.55;78.33
36834;BME280;48003;52.084;5.224;2022-12-07T07:33:05;101834.0;;;6.51;78.41
36834;BME280;48003;52.084;5.224;2022-12-07T07:34:42;101839.0;;;6.46;78.48
36834;BME280;48003;52.084;5.224;2022-12-07T07:36:18;101837.0;;;6.41;78.66
36834;BME280;48003;52.084;5.224;2022-12-07T07:37:54;101836.0;;;6.39;78.66
36834;BME280;48003;52.084;5.224;2022-12-07T07:41:07;101840.0;;;6.37;78.58
36834;BME280;48003;52.084;5.224;2022-12-07T07:42:43;101840.0;;;6.36;78.81
36834;BME280;48003;52.084;5.224;2022-12-07T07:44:19;101841.0;;;6.35;78.55
36834;BME280;48003;52.084;5.224;2022-12-07T07:47:31;101840.0;;;6.33;78.69
36834;BME280;48003;52.084;5.224;2022-12-07T07:49:08;101839.0;;;6.31;78.83
36834;BME280;48003;52.084;5.224;2022-12-07T07:50:45;101844.0;;;6.28;78.66
36834;BME280;48003;52.084;5.224;2022-12-07T07:53:57;101842.0;;;6.3;78.67
36834;BME280;48003;52.084;5.224;2022-12-07T07:55:33;101841.0;;;6.27;78.66
36834;BME280;48003;52.084;5.224;2022-12-07T07:57:10;101845.0;;;6.22;78.8
36834;BME280;48003;52.084;5.224;2022-12-07T07:58:46;101843.0;;;6.16;78.69
36834;BME280;48003;52.084;5.224;2022-12-07T08:01:58;101842.0;;;6.12;78.44
36834;BME280;48003;52.084;5.224;2022-12-07T08:03:35;101842.0;;;6.02;78.61
36834;BME280;48003;52.084;5.224;2022-12-07T08:05:13;101843.0;;;5.99;78.94
36834;BME280;48003;52.084;5.224;2022-12-07T08:08:25;101840.0;;;5.98;78.86
36834;BME280;48003;52.084;5.224;2022-12-07T08:10:01;101841.0;;;5.97;78.97
36834;BME280;48003;52.084;5.224;2022-12-07T08:11:38;101851.0;;;6.02;78.94
36834;BME280;48003;52.084;5.224;2022-12-07T08:14:51;101848.0;;;6.03;79.23
36834;BME280;48003;52.084;5.224;2022-12-07T08:16:29;101851.0;;;6.07;79.3
36834;BME280;48003;52.084;5.224;2022-12-07T08:18:05;101850.0;;;6.11;79.25
36834;BME280;48003;52.084;5.224;2022-12-07T08:19:42;101846.0;;;6.23;79.02
36834;BME280;48003;52.084;5.224;2022-12-07T08:22:54;101852.0;;;6.23;79.02
36834;BME280;48003;52.084;5.224;2022-12-07T08:24:32;101852.0;;;6.26;78.97
36834;BME280;48003;52.084;5.224;2022-12-07T08:26:11;101868.0;;;6.26;79.22
36834;BME280;48003;52.084;5.224;2022-12-07T08:29:25;101867.0;;;6.34;79.05
36834;BME280;48003;52.084;5.224;2022-12-07T08:31:03;101871.0;;;6.34;79.22
36834;BME280;48003;52.084;5.224;2022-12-07T08:32:40;101874.0;;;6.43;79.2
36834;BME280;48003;52.084;5.224;2022-12-07T08:35:52;101875.0;;;6.49;79.25
36834;BME280;48003;52.084;5.224;2022-12-07T08:37:28;101877.0;;;6.56;79.3
36834;BME280;48003;52.084;5.224;2022-12-07T08:39:04;101875.0;;;6.58;79.44
36834;BME280;48003;52.084;5.224;2022-12-07T08:40:41;101872.0;;;6.66;79.58
36834;BME280;48003;52.084;5.224;2022-12-07T08:43:53;101877.0;;;6.71;79.69
36834;BME280;48003;52.084;5.224;2022-12-07T08:45:32;101871.0;;;6.9;79.47
36834;BME280;48003;52.084;5.224;2022-12-07T08:47:09;101872.0;;;6.89;79.55
36834;BME280;48003;52.084;5.224;2022-12-07T08:50:29;101868.0;;;7.01;79.24
36834;BME280;48003;52.084;5.224;2022-12-07T08:52:07;101865.0;;;7.17;78.69
36834;BME280;48003;52.084;5.224;2022-12-07T08:53:43;101864.0;;;7.3;78.42
36834;BME280;48003;52.084;5.224;2022-12-07T08:55:20;101858.0;;;7.29;78.36
36834;BME280;48003;52.084;5.224;2022-12-07T08:58:34;101862.0;;;7.33;78.3
36834;BME280;48003;52.084;5.224;2022-12-07T09:00:13;101865.0;;;7.36;78.05
36834;BME280;48003;52.084;5.224;2022-12-07T09:01:50;101867.0;;;7.42;77.92
36834;BME280;48003;52.084;5.224;2022-12-07T09:05:03;101872.0;;;7.44;77.83
36834;BME280;48003;52.084;5.224;2022-12-07T09:06:41;101869.0;;;7.44;77.91
36834;BME280;48003;52.084;5.224;2022-12-07T09:08:18;101870.0;;;7.51;77.88
36834;BME280;48003;52.084;5.224;2022-12-07T09:09:56;101871.0;;;7.5;77.7
36834;BME280;48003;52.084;5.224;2022-12-07T09:13:08;101860.0;;;7.55;77.62
36834;BME280;48003;52.084;5.224;2022-12-07T09:14:44;101863.0;;;7.58;77.91
36834;BME280;48003;52.084;5.224;2022-12-07T09:16:21;101861.0;;;7.71;77.44
36834;BME280;48003;52.084;5.224;2022-12-07T09:19:33;101861.0;;;7.75;77.09
36834;BME280;48003;52.084;5.224;2022-12-07T09:21:09;101862.0;;;7.81;76.91
36834;BME280;48003;52.084;5.224;2022-12-07T09:22:45;101856.0;;;7.86;77.23
36834;BME280;48003;52.084;5.224;2022-12-07T09:25:59;101855.0;;;7.89;76.98
36834;BME280;48003;52.084;5.224;2022-12-07T09:27:36;101853.0;;;7.98;76.59
36834;BME280;48003;52.084;5.224;2022-12-07T09:29:12;101850.0;;;7.97;76.48
36834;BME280;48003;52.084;5.224;2022-12-07T09:30:48;101845.0;;;8.0;76.33
36834;BME280;48003;52.084;5.224;2022-12-07T09:34:01;101851.0;;;8.13;75.75
36834;BME280;48003;52.084;5.224;2022-12-07T09:35:37;101855.0;;;8.2;74.8
36834;BME280;48003;52.084;5.224;2022-12-07T09:37:14;101852.0;;;8.18;74.58
36834;BME280;48003;52.084;5.224;2022-12-07T09:40:27;101853.0;;;8.15;74.86
36834;BME280;48003;52.084;5.224;2022-12-07T09:42:05;101852.0;;;8.2;75.05
36834;BME280;48003;52.084;5.224;2022-12-07T09:43:43;101851.0;;;8.22;75.83
36834;BME280;48003;52.084;5.224;2022-12-07T09:47:00;101856.0;;;8.26;76.49
36834;BME280;48003;52.084;5.224;2022-12-07T09:48:37;101855.0;;;8.32;76.36
36834;BME280;48003;52.084;5.224;2022-12-07T09:50:16;101853.0;;;8.42;75.52
36834;BME280;48003;52.084;5.224;2022-12-07T09:52:04;101857.0;;;8.39;75.36
36834;BME280;48003;52.084;5.224;2022-12-07T09:53:55;101853.0;;;8.53;75.39
36834;BME280;48003;52.084;5.224;2022-12-07T09:57:28;101853.0;;;8.57;74.55
36834;BME280;48003;52.084;5.224;2022-12-07T09:59:12;101855.0;;;8.59;74.36
36834;BME280;48003;52.084;5.224;2022-12-07T10:00:50;101853.0;;;8.53;73.88
36834;BME280;48003;52.084;5.224;2022-12-07T10:02:36;101857.0;;;8.52;73.55
36834;BME280;48003;52.084;5.224;2022-12-07T10:05:54;101855.0;;;8.64;73.86
36834;BME280;48003;52.084;5.224;2022-12-07T10:07:31;101849.0;;;8.66;73.48
36834;BME280;48003;52.084;5.224;2022-12-07T10:09:10;101848.0;;;8.59;73.19
36834;BME280;48003;52.084;5.224;2022-12-07T10:10:52;101843.0;;;8.64;73.42
36834;BME280;48003;52.084;5.224;2022-12-07T10:14:12;101843.0;;;8.72;73.23
36834;BME280;48003;52.084;5.224;2022-12-07T10:15:51;101837.0;;;8.69;72.97
36834;BME280;48003;52.084;5.224;2022-12-07T10:17:32;101830.0;;;8.76;73.19
36834;BME280;48003;52.084;5.224;2022-12-07T10:19:19;101825.0;;;8.75;73.55
36834;BME280;48003;52.084;5.224;2022-12-07T10:22:54;101822.0;;;8.81;73.67
36834;BME280;48003;52.084;5.224;2022-12-07T10:24:30;101817.0;;;8.89;73.48
36834;BME280;48003;52.084;5.224;2022-12-07T10:26:41;101818.0;;;8.94;73.13
36834;BME280;48003;52.084;5.224;2022-12-07T10:28:34;101811.0;;;9.06;72.02
36834;BME280;48003;52.084;5.224;2022-12-07T10:30:14;101815.0;;;8.93;71.75
36834;BME280;48003;52.084;5.224;2022-12-07T10:31:59;101814.0;;;8.98;71.39
36834;BME280;48003;52.084;5.224;2022-12-07T10:33:49;101815.0;;;8.98;71.91
36834;BME280;48003;52.084;5.224;2022-12-07T10:37:20;101815.0;;;9.0;72.23
36834;BME280;48003;52.084;5.224;2022-12-07T10:39:01;101809.0;;;9.09;71.84
36834;BME280;48003;52.084;5.224;2022-12-07T10:40:38;101802.0;;;9.16;72.05
36834;BME280;48003;52.084;5.224;2022-12-07T10:42:18;101800.0;;;9.24;72.05
36834;BME280;48003;52.084;5.224;2022-12-07T10:45:35;101796.0;;;9.36;72.61
36834;BME280;48003;52.084;5.224;2022-12-07T10:47:26;101795.0;;;9.43;71.69
36834;BME280;48003;52.084;5.224;2022-12-07T10:49:21;101791.0;;;9.5;70.41
36834;BME280;48003;52.084;5.224;2022-12-07T10:52:36;101788.0;;;9.59;69.95
36834;BME280;48003;52.084;5.224;2022-12-07T10:54:25;101790.0;;;9.66;69.12
36834;BME280;48003;52.084;5.224;2022-12-07T10:56:24;101788.0;;;9.73;67.87
36834;BME280;48003;52.084;5.224;2022-12-07T10:58:30;101789.0;;;9.64;67.19
36834;BME280;48003;52.084;5.224;2022-12-07T11:00:17;101792.0;;;9.66;66.94
36834;BME280;48003;52.084;5.224;2022-12-07T11:02:00;101793.0;;;9.68;67.5
36834;BME280;48003;52.084;5.224;2022-12-07T11:04:00;101797.0;;;9.55;67.13
36834;BME280;48003;52.084;5.224;2022-12-07T11:05:56;101797.0;;;9.56;67.41
36834;BME280;48003;52.084;5.224;2022-12-07T11:07:49;101801.0;;;9.55;67.73
36834;BME280;48003;52.084;5.224;2022-12-07T11:10:03;101800.0;;;9.47;68.34
36834;BME280;48003;52.084;5.224;2022-12-07T11:11:47;101791.0;;;9.41;68.78
36834;BME280;48003;52.084;5.224;2022-12-07T11:13:37;101787.0;;;9.39;68.97
36834;BME280;48003;52.084;5.224;2022-12-07T11:17:09;101786.0;;;9.4;69.22
36834;BME280;48003;52.084;5.224;2022-12-07T11:18:59;101778.0;;;9.32;69.69
36834;BME280;48003;52.084;5.224;2022-12-07T11:20:45;101778.0;;;9.32;69.91